Zenith Leader — 2ACU6 — position and weather

sailwx.info

Track history (hours):
 
Tides and Currents Weather Stations Pressure Air Temp Water Temp Dewpoint Dewpoint Depression Visibility Wind Speed Wind Dir Waves Ship Positions

Zenith Leader

Last reported at 2016-Sep-23 02:10 UTC. Time now 2016-Sep-28 00:07 UTC.
Position N 35°40' E 142°10'.

Length 200 m; draft 9.2 m.

Type: Cargo ship. MMSI: 235058697.

Date/timePositionNaut miles runAvg speedWind from/ knotsBaromVisibWave heightAir tempDewpointWater temp
2016-Sep-23 02:10N 35°40' E 142°10'1220.2
2016-Sep-23 01:33N 35°35' E 141°56'2019.9
2016-Sep-23 00:32N 35°25' E 141°34'1919.1
2016-Sep-22 23:31N 35°16' E 141°13'5318.0
2016-Sep-22 20:33N 34°54' E 140°14'28 0.8
2016-Sep-21 09:33N 35°09' E 139°45'1110.5
2016-Sep-21 08:33N 35°20' E 139°43'11 3.5
2016-Sep-21 05:32N 35°30' E 139°46'0 0.0
2016-Sep-21 03:32N 35°30' E 139°46'0 0.0
2016-Sep-21 02:32N 35°30' E 139°46'17 1.9
2016-Sep-20 17:33N 35°36' E 140°06'0 0.0
2016-Sep-20 14:21N 35°36' E 140°06'0 0.0
2016-Sep-20 13:27N 35°36' E 140°06'0 0.0
2016-Sep-20 10:33N 35°36' E 140°06'0 0.0
2016-Sep-20 08:27N 35°36' E 140°06'0 0.0
2016-Sep-20 07:27N 35°36' E 140°06'0 0.0
2016-Sep-20 06:27N 35°36' E 140°06'0 0.0
2016-Sep-20 02:33N 35°36' E 140°06'0 0.0
2016-Sep-19 23:33N 35°36' E 140°06'6 1.6
2016-Sep-19 19:34N 35°32' E 139°59'0 0.0
2016-Sep-19 18:34N 35°32' E 139°59'0 0.0
2016-Sep-19 16:30N 35°32' E 139°59'0 0.0
2016-Sep-19 14:34N 35°32' E 139°59'0 0.0
2016-Sep-19 13:34N 35°32' E 139°59'0 0.0
2016-Sep-19 12:32N 35°32' E 139°59'0 0.0
2016-Sep-19 11:31N 35°32' E 139°59'0 0.0
2016-Sep-19 09:31N 35°32' E 139°59'0 0.0
2016-Sep-19 07:31N 35°32' E 139°59'0 0.0
2016-Sep-19 06:25N 35°32' E 139°59'15 5.3
2016-Sep-19 03:31N 35°28' E 139°41'0 0.0
2016-Sep-19 02:31N 35°28' E 139°41'0 0.0
2016-Sep-19 00:31N 35°28' E 139°41'0 0.0
2016-Sep-18 19:31N 35°28' E 139°41'0 0.0
2016-Sep-18 15:31N 35°28' E 139°41'0 0.0
2016-Sep-18 14:31N 35°28' E 139°41'0 0.0
2016-Sep-18 10:31N 35°28' E 139°41'0 0.0
2016-Sep-18 09:28N 35°28' E 139°41'28 4.1
2016-Sep-18 02:33N 34°60' E 139°41'1010.0
2016-Sep-18 01:33N 34°50' E 139°42'1212.3
2016-Sep-18 00:33N 34°39' E 139°49'16 7.3
2016-Sep-17 22:17N 34°25' E 140°01'1 0.9
2016-Sep-17 21:26N 34°25' E 140°00'0 0.2
2016-Sep-17 20:32N 34°25' E 139°60'4 2.4
2016-Sep-17 19:02N 34°27' E 139°56'6910.1
2016-Sep-17 12:16N 34°29' E 138°33'  
Track history (hours):
 
Tides and Currents Weather Stations Pressure Air Temp Water Temp Dewpoint Dewpoint Depression Visibility Wind Speed Wind Dir Waves Ship Positions

Zenith Leader

Last reported at 2016-Sep-23 02:10 UTC. Time now 2016-Sep-28 00:07 UTC.
Position N 35°40' E 142°10'.

Length 200 m; draft 9.2 m.

Type: Cargo ship. MMSI: 235058697.

Date/timePositionNaut miles runAvg speedWind from/ knotsBaromVisibWave heightAir tempDewpointWater temp
2016-Sep-23 02:10N 35°40' E 142°10'1220.2
2016-Sep-23 01:33N 35°35' E 141°56'2019.9
2016-Sep-23 00:32N 35°25' E 141°34'1919.1
2016-Sep-22 23:31N 35°16' E 141°13'5318.0
2016-Sep-22 20:33N 34°54' E 140°14'28 0.8
2016-Sep-21 09:33N 35°09' E 139°45'1110.5
2016-Sep-21 08:33N 35°20' E 139°43'11 3.5
2016-Sep-21 05:32N 35°30' E 139°46'0 0.0
2016-Sep-21 03:32N 35°30' E 139°46'0 0.0
2016-Sep-21 02:32N 35°30' E 139°46'17 1.9
2016-Sep-20 17:33N 35°36' E 140°06'0 0.0
2016-Sep-20 14:21N 35°36' E 140°06'0 0.0
2016-Sep-20 13:27N 35°36' E 140°06'0 0.0
2016-Sep-20 10:33N 35°36' E 140°06'0 0.0
2016-Sep-20 08:27N 35°36' E 140°06'0 0.0
2016-Sep-20 07:27N 35°36' E 140°06'0 0.0
2016-Sep-20 06:27N 35°36' E 140°06'0 0.0
2016-Sep-20 02:33N 35°36' E 140°06'0 0.0
2016-Sep-19 23:33N 35°36' E 140°06'6 1.6
2016-Sep-19 19:34N 35°32' E 139°59'0 0.0
2016-Sep-19 18:34N 35°32' E 139°59'0 0.0
2016-Sep-19 16:30N 35°32' E 139°59'0 0.0
2016-Sep-19 14:34N 35°32' E 139°59'0 0.0
2016-Sep-19 13:34N 35°32' E 139°59'0 0.0
2016-Sep-19 12:32N 35°32' E 139°59'0 0.0
2016-Sep-19 11:31N 35°32' E 139°59'0 0.0
2016-Sep-19 09:31N 35°32' E 139°59'0 0.0
2016-Sep-19 07:31N 35°32' E 139°59'0 0.0
2016-Sep-19 06:25N 35°32' E 139°59'15 5.3
2016-Sep-19 03:31N 35°28' E 139°41'0 0.0
2016-Sep-19 02:31N 35°28' E 139°41'0 0.0
2016-Sep-19 00:31N 35°28' E 139°41'0 0.0
2016-Sep-18 19:31N 35°28' E 139°41'0 0.0
2016-Sep-18 15:31N 35°28' E 139°41'0 0.0
2016-Sep-18 14:31N 35°28' E 139°41'0 0.0
2016-Sep-18 10:31N 35°28' E 139°41'0 0.0
2016-Sep-18 09:28N 35°28' E 139°41'28 4.1
2016-Sep-18 02:33N 34°60' E 139°41'1010.0
2016-Sep-18 01:33N 34°50' E 139°42'1212.3
2016-Sep-18 00:33N 34°39' E 139°49'16 7.3
2016-Sep-17 22:17N 34°25' E 140°01'1 0.9
2016-Sep-17 21:26N 34°25' E 140°00'0 0.2
2016-Sep-17 20:32N 34°25' E 139°60'4 2.4
2016-Sep-17 19:02N 34°27' E 139°56'6910.1
2016-Sep-17 12:16N 34°29' E 138°33'  

Dump ship's entire track history